sensor_id;sensor_type;location;lat;lon;timestamp;pressure;altitude;pressure_sealevel;temperature;humidity
77469;BME280;68840;50.272;12.818;2023-04-24T00:00:06;94935;;;10.9;76.0
77469;BME280;68840;50.272;12.818;2023-04-24T00:02:06;94934;;;10.9;76.1
77469;BME280;68840;50.272;12.818;2023-04-24T00:04:07;94934;;;10.9;76.1
77469;BME280;68840;50.272;12.818;2023-04-24T00:06:06;94934;;;10.9;76.2
77469;BME280;68840;50.272;12.818;2023-04-24T00:08:06;94932;;;10.9;76.1
77469;BME280;68840;50.272;12.818;2023-04-24T00:10:06;94933;;;10.8;76.1
77469;BME280;68840;50.272;12.818;2023-04-24T00:12:05;94932;;;10.8;76.2
77469;BME280;68840;50.272;12.818;2023-04-24T00:14:05;94930;;;10.8;76.1
77469;BME280;68840;50.272;12.818;2023-04-24T00:16:05;94930;;;10.8;76.0
77469;BME280;68840;50.272;12.818;2023-04-24T00:18:05;94926;;;10.7;76.1
77469;BME280;68840;50.272;12.818;2023-04-24T00:20:06;94926;;;10.7;76.1
77469;BME280;68840;50.272;12.818;2023-04-24T00:22:05;94925;;;10.7;76.2
77469;BME280;68840;50.272;12.818;2023-04-24T00:24:06;94927;;;10.7;76.2
77469;BME280;68840;50.272;12.818;2023-04-24T00:26:05;94926;;;10.7;76.2
77469;BME280;68840;50.272;12.818;2023-04-24T00:28:05;94926;;;10.6;76.3
77469;BME280;68840;50.272;12.818;2023-04-24T00:30:06;94925;;;10.6;76.4
77469;BME280;68840;50.272;12.818;2023-04-24T00:32:05;94924;;;10.6;76.4
77469;BME280;68840;50.272;12.818;2023-04-24T00:34:06;94924;;;10.6;76.5
77469;BME280;68840;50.272;12.818;2023-04-24T00:36:05;94923;;;10.6;76.6
77469;BME280;68840;50.272;12.818;2023-04-24T00:38:05;94920;;;10.6;76.5
77469;BME280;68840;50.272;12.818;2023-04-24T00:40:07;94915;;;10.6;76.6
77469;BME280;68840;50.272;12.818;2023-04-24T00:42:06;94913;;;10.6;76.7
77469;BME280;68840;50.272;12.818;2023-04-24T00:44:05;94914;;;10.6;76.7
77469;BME280;68840;50.272;12.818;2023-04-24T00:46:06;94914;;;10.6;76.6
77469;BME280;68840;50.272;12.818;2023-04-24T00:48:06;94914;;;10.6;76.7
77469;BME280;68840;50.272;12.818;2023-04-24T00:50:07;94912;;;10.6;76.7
77469;BME280;68840;50.272;12.818;2023-04-24T00:52:08;94911;;;10.6;76.6
77469;BME280;68840;50.272;12.818;2023-04-24T00:54:05;94910;;;10.6;76.4
77469;BME280;68840;50.272;12.818;2023-04-24T00:56:05;94912;;;10.6;76.4
77469;BME280;68840;50.272;12.818;2023-04-24T00:58:05;94913;;;10.6;76.4
77469;BME280;68840;50.272;12.818;2023-04-24T01:00:07;94913;;;10.6;76.2
77469;BME280;68840;50.272;12.818;2023-04-24T01:02:05;94914;;;10.5;76.3
77469;BME280;68840;50.272;12.818;2023-04-24T01:04:06;94913;;;10.5;76.3
77469;BME280;68840;50.272;12.818;2023-04-24T01:06:05;94913;;;10.5;76.3
77469;BME280;68840;50.272;12.818;2023-04-24T01:08:06;94912;;;10.5;76.3
77469;BME280;68840;50.272;12.818;2023-04-24T01:10:07;94912;;;10.4;76.3
77469;BME280;68840;50.272;12.818;2023-04-24T01:12:06;94911;;;10.4;76.2
77469;BME280;68840;50.272;12.818;2023-04-24T01:14:06;94912;;;10.4;76.2
77469;BME280;68840;50.272;12.818;2023-04-24T01:16:05;94912;;;10.4;76.2
77469;BME280;68840;50.272;12.818;2023-04-24T01:18:05;94912;;;10.4;76.2
77469;BME280;68840;50.272;12.818;2023-04-24T01:20:06;94914;;;10.4;76.2
77469;BME280;68840;50.272;12.818;2023-04-24T01:22:10;94915;;;10.4;76.3
77469;BME280;68840;50.272;12.818;2023-04-24T01:24:06;94915;;;10.4;76.2
77469;BME280;68840;50.272;12.818;2023-04-24T01:26:06;94913;;;10.4;76.2
77469;BME280;68840;50.272;12.818;2023-04-24T01:28:05;94912;;;10.4;76.3
77469;BME280;68840;50.272;12.818;2023-04-24T01:30:07;94912;;;10.3;76.5
77469;BME280;68840;50.272;12.818;2023-04-24T01:32:06;94909;;;10.3;76.3
77469;BME280;68840;50.272;12.818;2023-04-24T01:34:06;94909;;;10.3;76.3
77469;BME280;68840;50.272;12.818;2023-04-24T01:36:06;94910;;;10.3;76.3
77469;BME280;68840;50.272;12.818;2023-04-24T01:38:05;94910;;;10.3;76.2
77469;BME280;68840;50.272;12.818;2023-04-24T01:40:07;94910;;;10.3;76.1
77469;BME280;68840;50.272;12.818;2023-04-24T01:42:05;94910;;;10.3;76.2
77469;BME280;68840;50.272;12.818;2023-04-24T01:44:05;94908;;;10.4;76.2
77469;BME280;68840;50.272;12.818;2023-04-24T01:46:06;94907;;;10.3;76.1
77469;BME280;68840;50.272;12.818;2023-04-24T01:48:05;94905;;;10.3;76.0
77469;BME280;68840;50.272;12.818;2023-04-24T01:50:06;94909;;;10.3;76.1
77469;BME280;68840;50.272;12.818;2023-04-24T01:52:05;94909;;;10.3;76.1
77469;BME280;68840;50.272;12.818;2023-04-24T01:54:05;94905;;;10.3;76.2
77469;BME280;68840;50.272;12.818;2023-04-24T01:56:06;94905;;;10.3;76.1
77469;BME280;68840;50.272;12.818;2023-04-24T01:58:05;94907;;;10.3;76.2
77469;BME280;68840;50.272;12.818;2023-04-24T02:00:07;94907;;;10.2;76.2
77469;BME280;68840;50.272;12.818;2023-04-24T02:02:06;94906;;;10.2;76.2
77469;BME280;68840;50.272;12.818;2023-04-24T02:04:07;94906;;;10.2;76.3
77469;BME280;68840;50.272;12.818;2023-04-24T02:06:05;94904;;;10.2;76.3
77469;BME280;68840;50.272;12.818;2023-04-24T02:08:05;94904;;;10.2;76.5
77469;BME280;68840;50.272;12.818;2023-04-24T02:10:06;94904;;;10.2;76.5
77469;BME280;68840;50.272;12.818;2023-04-24T02:12:05;94903;;;10.2;76.5
77469;BME280;68840;50.272;12.818;2023-04-24T02:14:05;94897;;;10.2;76.6
77469;BME280;68840;50.272;12.818;2023-04-24T02:16:05;94895;;;10.2;76.5
77469;BME280;68840;50.272;12.818;2023-04-24T02:18:06;94891;;;10.2;76.5
77469;BME280;68840;50.272;12.818;2023-04-24T02:20:07;94889;;;10.2;76.5
77469;BME280;68840;50.272;12.818;2023-04-24T02:22:05;94887;;;10.2;76.5
77469;BME280;68840;50.272;12.818;2023-04-24T02:24:05;94885;;;10.2;76.5
77469;BME280;68840;50.272;12.818;2023-04-24T02:26:05;94883;;;10.2;76.6
77469;BME280;68840;50.272;12.818;2023-04-24T02:28:05;94886;;;10.2;76.6
77469;BME280;68840;50.272;12.818;2023-04-24T02:30:06;94885;;;10.2;76.7
77469;BME280;68840;50.272;12.818;2023-04-24T02:32:05;94885;;;10.2;76.5
77469;BME280;68840;50.272;12.818;2023-04-24T02:34:05;94882;;;10.2;76.6
77469;BME280;68840;50.272;12.818;2023-04-24T02:36:05;94881;;;10.2;76.6
77469;BME280;68840;50.272;12.818;2023-04-24T02:38:05;94881;;;10.2;76.6
77469;BME280;68840;50.272;12.818;2023-04-24T02:40:06;94881;;;10.2;76.6
77469;BME280;68840;50.272;12.818;2023-04-24T02:42:05;94878;;;10.2;76.6
77469;BME280;68840;50.272;12.818;2023-04-24T02:44:05;94877;;;10.2;76.8
77469;BME280;68840;50.272;12.818;2023-04-24T02:46:05;94879;;;10.2;76.7
77469;BME280;68840;50.272;12.818;2023-04-24T02:48:05;94880;;;10.2;76.7
77469;BME280;68840;50.272;12.818;2023-04-24T02:50:06;94879;;;10.2;76.8
77469;BME280;68840;50.272;12.818;2023-04-24T02:52:05;94879;;;10.2;76.7
77469;BME280;68840;50.272;12.818;2023-04-24T02:54:05;94880;;;10.2;76.6
77469;BME280;68840;50.272;12.818;2023-04-24T02:56:05;94880;;;10.2;76.6
77469;BME280;68840;50.272;12.818;2023-04-24T02:58:06;94879;;;10.2;76.6
77469;BME280;68840;50.272;12.818;2023-04-24T03:00:07;94878;;;10.2;76.6
77469;BME280;68840;50.272;12.818;2023-04-24T03:02:05;94876;;;10.2;76.6
77469;BME280;68840;50.272;12.818;2023-04-24T03:04:05;94875;;;10.2;76.5
77469;BME280;68840;50.272;12.818;2023-04-24T03:06:05;94872;;;10.1;76.6
77469;BME280;68840;50.272;12.818;2023-04-24T03:08:06;94871;;;10.1;76.5
77469;BME280;68840;50.272;12.818;2023-04-24T03:10:06;94869;;;10.1;76.6
77469;BME280;68840;50.272;12.818;2023-04-24T03:12:05;94868;;;10.1;76.6
77469;BME280;68840;50.272;12.818;2023-04-24T03:14:05;94867;;;10.1;76.7
77469;BME280;68840;50.272;12.818;2023-04-24T03:16:05;94864;;;10.1;76.8
77469;BME280;68840;50.272;12.818;2023-04-24T03:18:05;94862;;;10.1;76.7
77469;BME280;68840;50.272;12.818;2023-04-24T03:20:07;94861;;;10.0;76.8
77469;BME280;68840;50.272;12.818;2023-04-24T03:22:05;94862;;;10.0;76.8
77469;BME280;68840;50.272;12.818;2023-04-24T03:24:05;94867;;;10.1;76.8
77469;BME280;68840;50.272;12.818;2023-04-24T03:26:05;94870;;;10.1;76.8
77469;BME280;68840;50.272;12.818;2023-04-24T03:28:05;94877;;;10.1;76.8
77469;BME280;68840;50.272;12.818;2023-04-24T03:30:06;94881;;;10.1;76.9
77469;BME280;68840;50.272;12.818;2023-04-24T03:32:05;94881;;;10.1;76.8
77469;BME280;68840;50.272;12.818;2023-04-24T03:34:05;94880;;;10.1;76.9
77469;BME280;68840;50.272;12.818;2023-04-24T03:36:05;94878;;;10.1;77.0
77469;BME280;68840;50.272;12.818;2023-04-24T03:38:05;94877;;;10.1;76.9
77469;BME280;68840;50.272;12.818;2023-04-24T03:40:06;94874;;;10.1;77.0
77469;BME280;68840;50.272;12.818;2023-04-24T03:42:05;94872;;;10.1;77.0
77469;BME280;68840;50.272;12.818;2023-04-24T03:44:05;94872;;;10.1;77.0
77469;BME280;68840;50.272;12.818;2023-04-24T03:46:05;94869;;;10.1;77.0
77469;BME280;68840;50.272;12.818;2023-04-24T03:48:05;94867;;;10.1;77.0
77469;BME280;68840;50.272;12.818;2023-04-24T03:50:06;94865;;;10.1;77.0
77469;BME280;68840;50.272;12.818;2023-04-24T03:52:05;94864;;;10.1;77.0
77469;BME280;68840;50.272;12.818;2023-04-24T03:54:05;94865;;;10.1;77.0
77469;BME280;68840;50.272;12.818;2023-04-24T03:56:06;94864;;;10.1;77.0
77469;BME280;68840;50.272;12.818;2023-04-24T03:58:06;94862;;;10.1;77.0
77469;BME280;68840;50.272;12.818;2023-04-24T04:00:06;94860;;;10.1;77.0
77469;BME280;68840;50.272;12.818;2023-04-24T04:02:05;94859;;;10.1;76.9
77469;BME280;68840;50.272;12.818;2023-04-24T04:04:05;94861;;;10.1;76.9
77469;BME280;68840;50.272;12.818;2023-04-24T04:06:05;94861;;;10.1;76.9
77469;BME280;68840;50.272;12.818;2023-04-24T04:08:05;94862;;;10.1;77.0
77469;BME280;68840;50.272;12.818;2023-04-24T04:10:07;94862;;;10.1;76.9
77469;BME280;68840;50.272;12.818;2023-04-24T04:12:05;94859;;;10.1;76.8
77469;BME280;68840;50.272;12.818;2023-04-24T04:14:05;94860;;;10.1;76.8
77469;BME280;68840;50.272;12.818;2023-04-24T04:16:05;94863;;;10.1;76.8
77469;BME280;68840;50.272;12.818;2023-04-24T04:18:05;94864;;;10.1;76.7
77469;BME280;68840;50.272;12.818;2023-04-24T04:20:10;94865;;;10.1;76.8
77469;BME280;68840;50.272;12.818;2023-04-24T04:22:05;94864;;;10.1;76.8
77469;BME280;68840;50.272;12.818;2023-04-24T04:24:07;94864;;;10.1;76.8
77469;BME280;68840;50.272;12.818;2023-04-24T04:26:06;94867;;;10.1;76.8
77469;BME280;68840;50.272;12.818;2023-04-24T04:28:06;94867;;;10.1;76.8
77469;BME280;68840;50.272;12.818;2023-04-24T04:30:06;94867;;;10.1;76.8
77469;BME280;68840;50.272;12.818;2023-04-24T04:32:06;94871;;;10.1;76.8
77469;BME280;68840;50.272;12.818;2023-04-24T04:34:05;94872;;;10.1;76.8
77469;BME280;68840;50.272;12.818;2023-04-24T04:36:05;94874;;;10.1;76.7
77469;BME280;68840;50.272;12.818;2023-04-24T04:38:08;94875;;;10.1;76.7
77469;BME280;68840;50.272;12.818;2023-04-24T04:40:06;94881;;;10.1;76.7
77469;BME280;68840;50.272;12.818;2023-04-24T04:42:06;94881;;;10.1;76.7
77469;BME280;68840;50.272;12.818;2023-04-24T04:44:06;94880;;;10.1;76.7
77469;BME280;68840;50.272;12.818;2023-04-24T04:46:06;94884;;;10.1;76.7
77469;BME280;68840;50.272;12.818;2023-04-24T04:48:07;94886;;;10.1;76.7
77469;BME280;68840;50.272;12.818;2023-04-24T04:50:06;94886;;;10.1;76.8
77469;BME280;68840;50.272;12.818;2023-04-24T04:52:05;94883;;;10.1;76.8
77469;BME280;68840;50.272;12.818;2023-04-24T04:54:05;94883;;;10.1;76.8
77469;BME280;68840;50.272;12.818;2023-04-24T04:56:05;94884;;;10.1;76.9
77469;BME280;68840;50.272;12.818;2023-04-24T04:58:05;94885;;;10.1;76.8
77469;BME280;68840;50.272;12.818;2023-04-24T05:00:07;94887;;;10.1;76.9
77469;BME280;68840;50.272;12.818;2023-04-24T05:02:05;94889;;;10.1;76.9
77469;BME280;68840;50.272;12.818;2023-04-24T05:04:05;94889;;;10.1;76.9
77469;BME280;68840;50.272;12.818;2023-04-24T05:06:06;94889;;;10.1;76.9
77469;BME280;68840;50.272;12.818;2023-04-24T05:08:05;94889;;;10.1;76.9
77469;BME280;68840;50.272;12.818;2023-04-24T05:10:06;94889;;;10.2;76.9
77469;BME280;68840;50.272;12.818;2023-04-24T05:12:05;94893;;;10.1;76.8
77469;BME280;68840;50.272;12.818;2023-04-24T05:14:05;94895;;;10.2;76.9
77469;BME280;68840;50.272;12.818;2023-04-24T05:16:05;94895;;;10.2;77.0
77469;BME280;68840;50.272;12.818;2023-04-24T05:18:05;94896;;;10.2;77.0
77469;BME280;68840;50.272;12.818;2023-04-24T05:20:07;94894;;;10.2;77.0
77469;BME280;68840;50.272;12.818;2023-04-24T05:22:06;94892;;;10.2;76.9
77469;BME280;68840;50.272;12.818;2023-04-24T05:24:06;94892;;;10.2;77.2
77469;BME280;68840;50.272;12.818;2023-04-24T05:26:05;94890;;;10.2;76.9
77469;BME280;68840;50.272;12.818;2023-04-24T05:28:06;94891;;;10.2;76.8
77469;BME280;68840;50.272;12.818;2023-04-24T05:30:06;94887;;;10.2;76.9
77469;BME280;68840;50.272;12.818;2023-04-24T05:32:06;94887;;;10.2;76.8
77469;BME280;68840;50.272;12.818;2023-04-24T05:34:05;94888;;;10.2;76.7
77469;BME280;68840;50.272;12.818;2023-04-24T05:36:06;94891;;;10.2;76.7
77469;BME280;68840;50.272;12.818;2023-04-24T05:38:05;94891;;;10.3;76.6
77469;BME280;68840;50.272;12.818;2023-04-24T05:40:06;94891;;;10.3;76.6
77469;BME280;68840;50.272;12.818;2023-04-24T05:42:05;94885;;;10.3;76.5
77469;BME280;68840;50.272;12.818;2023-04-24T05:44:05;94881;;;10.3;76.4
77469;BME280;68840;50.272;12.818;2023-04-24T05:46:05;94880;;;10.3;76.4
77469;BME280;68840;50.272;12.818;2023-04-24T05:48:05;94879;;;10.3;76.4
77469;BME280;68840;50.272;12.818;2023-04-24T05:50:06;94879;;;10.3;76.3
77469;BME280;68840;50.272;12.818;2023-04-24T05:52:08;94881;;;10.3;76.3
77469;BME280;68840;50.272;12.818;2023-04-24T05:54:05;94884;;;10.3;76.6
77469;BME280;68840;50.272;12.818;2023-04-24T05:56:05;94882;;;10.3;76.4
77469;BME280;68840;50.272;12.818;2023-04-24T05:58:05;94884;;;10.3;76.2
77469;BME280;68840;50.272;12.818;2023-04-24T06:00:06;94887;;;10.3;76.0
77469;BME280;68840;50.272;12.818;2023-04-24T06:02:05;94890;;;10.3;76.2
77469;BME280;68840;50.272;12.818;2023-04-24T06:04:05;94892;;;10.3;76.2
77469;BME280;68840;50.272;12.818;2023-04-24T06:06:05;94893;;;10.4;76.1
77469;BME280;68840;50.272;12.818;2023-04-24T06:08:06;94894;;;10.4;76.1
77469;BME280;68840;50.272;12.818;2023-04-24T06:10:06;94894;;;10.3;75.9
77469;BME280;68840;50.272;12.818;2023-04-24T06:12:08;94894;;;10.3;76.0
77469;BME280;68840;50.272;12.818;2023-04-24T06:14:05;94896;;;10.3;76.0
77469;BME280;68840;50.272;12.818;2023-04-24T06:16:05;94896;;;10.4;75.9
77469;BME280;68840;50.272;12.818;2023-04-24T06:18:05;94895;;;10.4;75.7
77469;BME280;68840;50.272;12.818;2023-04-24T06:20:07;94895;;;10.4;75.9
77469;BME280;68840;50.272;12.818;2023-04-24T06:22:05;94895;;;10.4;75.9
77469;BME280;68840;50.272;12.818;2023-04-24T06:24:05;94898;;;10.4;76.1
77469;BME280;68840;50.272;12.818;2023-04-24T06:26:05;94900;;;10.4;75.8
77469;BME280;68840;50.272;12.818;2023-04-24T06:28:05;94898;;;10.4;75.8
77469;BME280;68840;50.272;12.818;2023-04-24T06:30:06;94897;;;10.4;75.7
77469;BME280;68840;50.272;12.818;2023-04-24T06:32:05;94897;;;10.4;75.9
77469;BME280;68840;50.272;12.818;2023-04-24T06:34:05;94894;;;10.4;75.8
77469;BME280;68840;50.272;12.818;2023-04-24T06:36:06;94894;;;10.4;75.8
77469;BME280;68840;50.272;12.818;2023-04-24T06:38:06;94897;;;10.4;75.5
77469;BME280;68840;50.272;12.818;2023-04-24T06:40:06;94895;;;10.4;75.6
77469;BME280;68840;50.272;12.818;2023-04-24T06:42:05;94894;;;10.4;75.4
77469;BME280;68840;50.272;12.818;2023-04-24T06:44:05;94893;;;10.4;75.5
77469;BME280;68840;50.272;12.818;2023-04-24T06:46:05;94894;;;10.5;75.2
77469;BME280;68840;50.272;12.818;2023-04-24T06:48:05;94897;;;10.5;75.4
77469;BME280;68840;50.272;12.818;2023-04-24T06:50:06;94897;;;10.5;75.6
77469;BME280;68840;50.272;12.818;2023-04-24T06:52:06;94898;;;10.5;75.1
77469;BME280;68840;50.272;12.818;2023-04-24T06:54:05;94897;;;10.5;75.4
77469;BME280;68840;50.272;12.818;2023-04-24T06:56:05;94898;;;10.5;75.3
77469;BME280;68840;50.272;12.818;2023-04-24T06:58:06;94900;;;10.5;75.3
77469;BME280;68840;50.272;12.818;2023-04-24T07:00:07;94900;;;10.5;75.5
77469;BME280;68840;50.272;12.818;2023-04-24T07:02:06;94903;;;10.5;75.4
77469;BME280;68840;50.272;12.818;2023-04-24T07:04:05;94901;;;10.5;75.5
77469;BME280;68840;50.272;12.818;2023-04-24T07:06:06;94900;;;10.5;75.7
77469;BME280;68840;50.272;12.818;2023-04-24T07:08:06;94899;;;10.5;75.6
77469;BME280;68840;50.272;12.818;2023-04-24T07:10:06;94900;;;10.5;75.7
77469;BME280;68840;50.272;12.818;2023-04-24T07:12:05;94902;;;10.5;75.7
77469;BME280;68840;50.272;12.818;2023-04-24T07:14:05;94900;;;10.5;75.4
77469;BME280;68840;50.272;12.818;2023-04-24T07:16:05;94902;;;10.6;75.3
77469;BME280;68840;50.272;12.818;2023-04-24T07:18:05;94902;;;10.6;75.5
77469;BME280;68840;50.272;12.818;2023-04-24T07:20:09;94907;;;10.5;75.5
77469;BME280;68840;50.272;12.818;2023-04-24T07:22:05;94910;;;10.5;75.4
77469;BME280;68840;50.272;12.818;2023-04-24T07:24:09;94909;;;10.5;75.7
77469;BME280;68840;50.272;12.818;2023-04-24T07:26:06;94912;;;10.5;75.4
77469;BME280;68840;50.272;12.818;2023-04-24T07:28:05;94909;;;10.5;75.6
77469;BME280;68840;50.272;12.818;2023-04-24T07:30:07;94913;;;10.5;75.3
77469;BME280;68840;50.272;12.818;2023-04-24T07:32:06;94911;;;10.5;75.3
77469;BME280;68840;50.272;12.818;2023-04-24T07:34:05;94912;;;10.6;75.6
77469;BME280;68840;50.272;12.818;2023-04-24T07:36:06;94912;;;10.6;75.4
77469;BME280;68840;50.272;12.818;2023-04-24T07:38:05;94914;;;10.6;75.4
77469;BME280;68840;50.272;12.818;2023-04-24T07:40:06;94914;;;10.7;74.8
77469;BME280;68840;50.272;12.818;2023-04-24T07:42:05;94916;;;10.7;75.1
77469;BME280;68840;50.272;12.818;2023-04-24T07:44:06;94918;;;10.7;75.1
77469;BME280;68840;50.272;12.818;2023-04-24T07:46:05;94916;;;10.7;74.9
77469;BME280;68840;50.272;12.818;2023-04-24T07:48:05;94915;;;10.7;75.0
77469;BME280;68840;50.272;12.818;2023-04-24T07:50:06;94916;;;10.8;75.1
77469;BME280;68840;50.272;12.818;2023-04-24T07:52:05;94916;;;10.8;74.9
77469;BME280;68840;50.272;12.818;2023-04-24T07:54:05;94917;;;10.9;74.4
77469;BME280;68840;50.272;12.818;2023-04-24T07:56:06;94918;;;10.9;74.2
77469;BME280;68840;50.272;12.818;2023-04-24T07:58:05;94921;;;10.9;74.0
77469;BME280;68840;50.272;12.818;2023-04-24T08:00:06;94920;;;10.9;73.8
77469;BME280;68840;50.272;12.818;2023-04-24T08:02:06;94923;;;10.9;73.6
77469;BME280;68840;50.272;12.818;2023-04-24T08:04:05;94923;;;10.9;73.4
77469;BME280;68840;50.272;12.818;2023-04-24T08:06:06;94920;;;10.9;73.1
77469;BME280;68840;50.272;12.818;2023-04-24T08:08:05;94922;;;10.9;73.3
77469;BME280;68840;50.272;12.818;2023-04-24T08:10:06;94920;;;10.9;73.4
77469;BME280;68840;50.272;12.818;2023-04-24T08:12:05;94919;;;11.0;73.4
77469;BME280;68840;50.272;12.818;2023-04-24T08:14:05;94922;;;11.0;73.0
77469;BME280;68840;50.272;12.818;2023-04-24T08:16:05;94922;;;11.0;73.0
77469;BME280;68840;50.272;12.818;2023-04-24T08:18:05;94922;;;11.1;73.6
77469;BME280;68840;50.272;12.818;2023-04-24T08:20:10;94922;;;11.2;73.7
77469;BME280;68840;50.272;12.818;2023-04-24T08:22:05;94925;;;11.2;73.5
77469;BME280;68840;50.272;12.818;2023-04-24T08:24:08;94926;;;11.4;72.2
77469;BME280;68840;50.272;12.818;2023-04-24T08:26:07;94922;;;11.4;72.5
77469;BME280;68840;50.272;12.818;2023-04-24T08:28:06;94920;;;11.5;72.6
77469;BME280;68840;50.272;12.818;2023-04-24T08:30:07;94920;;;11.6;71.9
77469;BME280;68840;50.272;12.818;2023-04-24T08:32:06;94922;;;11.7;71.3
77469;BME280;68840;50.272;12.818;2023-04-24T08:34:05;94925;;;11.7;71.0
77469;BME280;68840;50.272;12.818;2023-04-24T08:36:06;94922;;;11.8;70.7
77469;BME280;68840;50.272;12.818;2023-04-24T08:38:05;94922;;;11.8;70.3
77469;BME280;68840;50.272;12.818;2023-04-24T08:40:10;94918;;;11.8;70.7
77469;BME280;68840;50.272;12.818;2023-04-24T08:42:07;94910;;;11.8;70.5
77469;BME280;68840;50.272;12.818;2023-04-24T08:44:06;94909;;;11.9;70.8
77469;BME280;68840;50.272;12.818;2023-04-24T08:46:05;94909;;;11.9;68.5
77469;BME280;68840;50.272;12.818;2023-04-24T08:48:06;94907;;;11.9;67.7
77469;BME280;68840;50.272;12.818;2023-04-24T08:50:07;94906;;;12.0;67.5
77469;BME280;68840;50.272;12.818;2023-04-24T08:52:05;94906;;;12.0;67.7
77469;BME280;68840;50.272;12.818;2023-04-24T08:54:07;94909;;;12.0;68.1
77469;BME280;68840;50.272;12.818;2023-04-24T08:56:06;94909;;;12.0;67.3
77469;BME280;68840;50.272;12.818;2023-04-24T08:58:05;94912;;;12.0;67.9
77469;BME280;68840;50.272;12.818;2023-04-24T09:00:07;94916;;;12.0;67.5
77469;BME280;68840;50.272;12.818;2023-04-24T09:02:06;94918;;;12.0;67.2
77469;BME280;68840;50.272;12.818;2023-04-24T09:04:07;94917;;;12.0;67.1
77469;BME280;68840;50.272;12.818;2023-04-24T09:06:06;94917;;;12.0;66.4
77469;BME280;68840;50.272;12.818;2023-04-24T09:08:06;94917;;;12.0;66.7
77469;BME280;68840;50.272;12.818;2023-04-24T09:10:06;94916;;;11.9;66.5
77469;BME280;68840;50.272;12.818;2023-04-24T09:12:05;94922;;;11.9;65.8
77469;BME280;68840;50.272;12.818;2023-04-24T09:14:06;94920;;;11.9;66.4
77469;BME280;68840;50.272;12.818;2023-04-24T09:16:06;94923;;;11.9;66.9
77469;BME280;68840;50.272;12.818;2023-04-24T09:18:05;94928;;;11.9;67.4
77469;BME280;68840;50.272;12.818;2023-04-24T09:20:06;94930;;;11.8;66.3
77469;BME280;68840;50.272;12.818;2023-04-24T09:22:06;94935;;;11.8;66.9
77469;BME280;68840;50.272;12.818;2023-04-24T09:24:07;94934;;;11.9;67.2
77469;BME280;68840;50.272;12.818;2023-04-24T09:26:05;94933;;;11.9;68.3
77469;BME280;68840;50.272;12.818;2023-04-24T09:28:06;94930;;;12.1;67.1
77469;BME280;68840;50.272;12.818;2023-04-24T09:30:07;94930;;;12.2;67.9
77469;BME280;68840;50.272;12.818;2023-04-24T09:32:19;94926;;;12.3;65.6
77469;BME280;68840;50.272;12.818;2023-04-24T09:34:05;94927;;;12.4;66.0
77469;BME280;68840;50.272;12.818;2023-04-24T09:36:06;94926;;;12.5;64.6
77469;BME280;68840;50.272;12.818;2023-04-24T09:38:05;94924;;;12.7;64.3
77469;BME280;68840;50.272;12.818;2023-04-24T09:40:10;94928;;;12.8;63.6
77469;BME280;68840;50.272;12.818;2023-04-24T09:42:06;94929;;;12.9;61.6
77469;BME280;68840;50.272;12.818;2023-04-24T09:44:12;94926;;;13.0;61.4
77469;BME280;68840;50.272;12.818;2023-04-24T09:46:07;94927;;;13.1;61.2
77469;BME280;68840;50.272;12.818;2023-04-24T09:48:08;94927;;;13.1;60.4
77469;BME280;68840;50.272;12.818;2023-04-24T09:50:14;94925;;;13.2;60.0
77469;BME280;68840;50.272;12.818;2023-04-24T09:52:08;94925;;;13.3;59.5
77469;BME280;68840;50.272;12.818;2023-04-24T09:54:13;94928;;;13.3;59.4
77469;BME280;68840;50.272;12.818;2023-04-24T09:56:08;94926;;;13.4;57.6
77469;BME280;68840;50.272;12.818;2023-04-24T09:58:08;94928;;;13.4;58.0
77469;BME280;68840;50.272;12.818;2023-04-24T10:00:07;94925;;;13.4;56.3
77469;BME280;68840;50.272;12.818;2023-04-24T10:02:16;94925;;;13.4;56.6
77469;BME280;68840;50.272;12.818;2023-04-24T10:04:05;94924;;;13.5;56.6
77469;BME280;68840;50.272;12.818;2023-04-24T10:06:11;94923;;;13.6;57.9
77469;BME280;68840;50.272;12.818;2023-04-24T10:08:07;94921;;;13.7;55.6
77469;BME280;68840;50.272;12.818;2023-04-24T10:10:06;94921;;;13.8;55.6
77469;BME280;68840;50.272;12.818;2023-04-24T10:12:07;94920;;;13.9;55.7
77469;BME280;68840;50.272;12.818;2023-04-24T10:14:06;94919;;;14.1;54.9
77469;BME280;68840;50.272;12.818;2023-04-24T10:16:07;94920;;;14.2;55.0
77469;BME280;68840;50.272;12.818;2023-04-24T10:18:06;94922;;;14.3;54.4
77469;BME280;68840;50.272;12.818;2023-04-24T10:20:06;94922;;;14.4;51.7
77469;BME280;68840;50.272;12.818;2023-04-24T10:22:05;94923;;;14.5;51.8
77469;BME280;68840;50.272;12.818;2023-04-24T10:24:07;94921;;;14.6;49.2
77469;BME280;68840;50.272;12.818;2023-04-24T10:26:06;94925;;;14.7;49.1
77469;BME280;68840;50.272;12.818;2023-04-24T10:28:05;94929;;;14.8;49.3
77469;BME280;68840;50.272;12.818;2023-04-24T10:30:06;94929;;;14.9;48.9
77469;BME280;68840;50.272;12.818;2023-04-24T10:32:07;94931;;;14.9;47.3
77469;BME280;68840;50.272;12.818;2023-04-24T10:34:06;94935;;;14.8;47.1
77469;BME280;68840;50.272;12.818;2023-04-24T10:36:05;94939;;;14.8;47.4
77469;BME280;68840;50.272;12.818;2023-04-24T10:38:08;94942;;;14.8;47.0
77469;BME280;68840;50.272;12.818;2023-04-24T10:40:08;94941;;;14.8;46.5
77469;BME280;68840;50.272;12.818;2023-04-24T10:42:14;94941;;;14.7;46.2
77469;BME280;68840;50.272;12.818;2023-04-24T10:44:06;94941;;;14.6;46.3
77469;BME280;68840;50.272;12.818;2023-04-24T10:46:06;94944;;;14.5;46.4
77469;BME280;68840;50.272;12.818;2023-04-24T10:48:10;94941;;;14.4;46.8
77469;BME280;68840;50.272;12.818;2023-04-24T10:50:08;94940;;;14.4;45.8
77469;BME280;68840;50.272;12.818;2023-04-24T10:52:05;94938;;;14.3;44.7
77469;BME280;68840;50.272;12.818;2023-04-24T10:54:23;94943;;;14.3;43.8
77469;BME280;68840;50.272;12.818;2023-04-24T10:56:07;94941;;;14.2;43.5
77469;BME280;68840;50.272;12.818;2023-04-24T10:58:05;94943;;;14.2;44.1
77469;BME280;68840;50.272;12.818;2023-04-24T11:00:16;94940;;;14.1;45.9
77469;BME280;68840;50.272;12.818;2023-04-24T11:02:07;94944;;;14.2;45.6
77469;BME280;68840;50.272;12.818;2023-04-24T11:04:05;94948;;;14.3;45.9
77469;BME280;68840;50.272;12.818;2023-04-24T11:06:07;94946;;;14.3;44.9
77469;BME280;68840;50.272;12.818;2023-04-24T11:08:15;94951;;;14.3;45.2
77469;BME280;68840;50.272;12.818;2023-04-24T11:10:06;94952;;;14.4;45.0